sensor_id;sensor_type;location;lat;lon;timestamp;temperature;humidity
17813;DHT22;9030;50.792;8.320;2024-01-27T00:00:26;3.60;99.90
17813;DHT22;9030;50.792;8.320;2024-01-27T00:02:53;3.60;99.90
17813;DHT22;9030;50.792;8.320;2024-01-27T00:05:20;3.60;99.90
17813;DHT22;9030;50.792;8.320;2024-01-27T00:07:46;3.60;99.90
17813;DHT22;9030;50.792;8.320;2024-01-27T00:10:14;3.60;99.90
17813;DHT22;9030;50.792;8.320;2024-01-27T00:12:41;3.60;99.90
17813;DHT22;9030;50.792;8.320;2024-01-27T00:15:08;3.60;99.90
17813;DHT22;9030;50.792;8.320;2024-01-27T00:17:35;3.60;99.90
17813;DHT22;9030;50.792;8.320;2024-01-27T00:20:01;3.60;99.90
17813;DHT22;9030;50.792;8.320;2024-01-27T00:22:28;3.60;99.90
17813;DHT22;9030;50.792;8.320;2024-01-27T00:24:55;3.60;99.90
17813;DHT22;9030;50.792;8.320;2024-01-27T00:27:23;3.50;99.90
17813;DHT22;9030;50.792;8.320;2024-01-27T00:29:50;3.50;99.90
17813;DHT22;9030;50.792;8.320;2024-01-27T00:32:17;3.60;99.90
17813;DHT22;9030;50.792;8.320;2024-01-27T00:34:43;3.60;99.90
17813;DHT22;9030;50.792;8.320;2024-01-27T00:37:10;3.50;99.90
17813;DHT22;9030;50.792;8.320;2024-01-27T00:39:36;3.50;99.90
17813;DHT22;9030;50.792;8.320;2024-01-27T00:42:03;3.50;99.90
17813;DHT22;9030;50.792;8.320;2024-01-27T00:44:31;3.50;99.90
17813;DHT22;9030;50.792;8.320;2024-01-27T00:46:58;3.50;99.90
17813;DHT22;9030;50.792;8.320;2024-01-27T00:49:24;3.50;99.90
17813;DHT22;9030;50.792;8.320;2024-01-27T00:51:51;3.50;99.90
17813;DHT22;9030;50.792;8.320;2024-01-27T00:54:18;3.40;99.90
17813;DHT22;9030;50.792;8.320;2024-01-27T00:56:44;3.40;99.90
17813;DHT22;9030;50.792;8.320;2024-01-27T00:59:11;3.40;99.90
17813;DHT22;9030;50.792;8.320;2024-01-27T01:01:39;3.40;99.90
17813;DHT22;9030;50.792;8.320;2024-01-27T01:04:07;3.40;99.90
17813;DHT22;9030;50.792;8.320;2024-01-27T01:06:33;3.50;99.90
17813;DHT22;9030;50.792;8.320;2024-01-27T01:09:00;3.40;99.90
17813;DHT22;9030;50.792;8.320;2024-01-27T01:11:27;3.40;99.90
17813;DHT22;9030;50.792;8.320;2024-01-27T01:13:54;3.40;99.90
17813;DHT22;9030;50.792;8.320;2024-01-27T01:16:20;3.40;99.90
17813;DHT22;9030;50.792;8.320;2024-01-27T01:18:48;3.40;99.90
17813;DHT22;9030;50.792;8.320;2024-01-27T01:21:15;3.40;99.90
17813;DHT22;9030;50.792;8.320;2024-01-27T01:23:42;3.40;99.90
17813;DHT22;9030;50.792;8.320;2024-01-27T01:26:08;3.40;99.90
17813;DHT22;9030;50.792;8.320;2024-01-27T01:28:35;3.30;99.90
17813;DHT22;9030;50.792;8.320;2024-01-27T01:31:02;3.40;99.90
17813;DHT22;9030;50.792;8.320;2024-01-27T01:33:29;3.30;99.90
17813;DHT22;9030;50.792;8.320;2024-01-27T01:35:57;3.30;99.90
17813;DHT22;9030;50.792;8.320;2024-01-27T01:38:23;3.30;99.90
17813;DHT22;9030;50.792;8.320;2024-01-27T01:40:50;3.20;99.90
17813;DHT22;9030;50.792;8.320;2024-01-27T01:43:17;3.20;99.90
17813;DHT22;9030;50.792;8.320;2024-01-27T01:45:43;3.10;99.90
17813;DHT22;9030;50.792;8.320;2024-01-27T01:48:10;3.10;99.90
17813;DHT22;9030;50.792;8.320;2024-01-27T01:50:37;3.10;99.90
17813;DHT22;9030;50.792;8.320;2024-01-27T01:53:05;3.10;99.90
17813;DHT22;9030;50.792;8.320;2024-01-27T01:55:33;3.00;99.90
17813;DHT22;9030;50.792;8.320;2024-01-27T01:57:59;3.00;99.90
17813;DHT22;9030;50.792;8.320;2024-01-27T02:00:26;2.90;99.90
17813;DHT22;9030;50.792;8.320;2024-01-27T02:02:53;2.90;99.90
17813;DHT22;9030;50.792;8.320;2024-01-27T02:05:20;2.90;99.90
17813;DHT22;9030;50.792;8.320;2024-01-27T02:07:46;2.90;99.90
17813;DHT22;9030;50.792;8.320;2024-01-27T02:10:15;2.80;99.90
17813;DHT22;9030;50.792;8.320;2024-01-27T02:12:42;2.80;99.90
17813;DHT22;9030;50.792;8.320;2024-01-27T02:15:10;2.90;99.90
17813;DHT22;9030;50.792;8.320;2024-01-27T02:17:38;2.80;99.90
17813;DHT22;9030;50.792;8.320;2024-01-27T02:20:06;2.70;99.90
17813;DHT22;9030;50.792;8.320;2024-01-27T02:22:35;2.70;99.90
17813;DHT22;9030;50.792;8.320;2024-01-27T02:25:04;2.70;99.90
17813;DHT22;9030;50.792;8.320;2024-01-27T02:27:31;2.70;99.90
17813;DHT22;9030;50.792;8.320;2024-01-27T02:29:58;2.60;99.90
17813;DHT22;9030;50.792;8.320;2024-01-27T02:32:24;2.60;99.90
17813;DHT22;9030;50.792;8.320;2024-01-27T02:34:51;2.50;99.90
17813;DHT22;9030;50.792;8.320;2024-01-27T02:37:18;2.50;99.90
17813;DHT22;9030;50.792;8.320;2024-01-27T02:39:44;2.30;99.90
17813;DHT22;9030;50.792;8.320;2024-01-27T02:42:12;2.30;99.90
17813;DHT22;9030;50.792;8.320;2024-01-27T02:44:39;2.30;99.90
17813;DHT22;9030;50.792;8.320;2024-01-27T02:47:06;2.40;99.90
17813;DHT22;9030;50.792;8.320;2024-01-27T02:49:32;2.40;99.90
17813;DHT22;9030;50.792;8.320;2024-01-27T02:51:59;2.20;99.90
17813;DHT22;9030;50.792;8.320;2024-01-27T02:54:25;2.10;99.90
17813;DHT22;9030;50.792;8.320;2024-01-27T02:56:52;2.10;99.90
17813;DHT22;9030;50.792;8.320;2024-01-27T02:59:20;2.00;99.90
17813;DHT22;9030;50.792;8.320;2024-01-27T03:01:47;2.00;99.90
17813;DHT22;9030;50.792;8.320;2024-01-27T03:04:14;1.90;99.90
17813;DHT22;9030;50.792;8.320;2024-01-27T03:06:40;1.90;99.90
17813;DHT22;9030;50.792;8.320;2024-01-27T03:09:07;1.90;99.90
17813;DHT22;9030;50.792;8.320;2024-01-27T03:11:33;1.80;99.90
17813;DHT22;9030;50.792;8.320;2024-01-27T03:14:00;1.70;99.90
17813;DHT22;9030;50.792;8.320;2024-01-27T03:16:28;1.70;99.90
17813;DHT22;9030;50.792;8.320;2024-01-27T03:18:55;1.70;99.90
17813;DHT22;9030;50.792;8.320;2024-01-27T03:21:21;1.60;99.90
17813;DHT22;9030;50.792;8.320;2024-01-27T03:23:48;1.50;99.90
17813;DHT22;9030;50.792;8.320;2024-01-27T03:26:15;1.50;99.90
17813;DHT22;9030;50.792;8.320;2024-01-27T03:28:41;1.40;99.90
17813;DHT22;9030;50.792;8.320;2024-01-27T03:31:08;1.30;99.90
17813;DHT22;9030;50.792;8.320;2024-01-27T03:33:36;1.20;99.90
17813;DHT22;9030;50.792;8.320;2024-01-27T03:36:03;1.10;99.90
17813;DHT22;9030;50.792;8.320;2024-01-27T03:38:35;0.90;99.90
17813;DHT22;9030;50.792;8.320;2024-01-27T03:41:02;0.80;99.90
17813;DHT22;9030;50.792;8.320;2024-01-27T03:43:29;0.70;99.90
17813;DHT22;9030;50.792;8.320;2024-01-27T03:45:56;0.70;99.90
17813;DHT22;9030;50.792;8.320;2024-01-27T03:48:23;0.60;99.90
17813;DHT22;9030;50.792;8.320;2024-01-27T03:50:51;0.50;99.90
17813;DHT22;9030;50.792;8.320;2024-01-27T03:53:17;0.50;99.90
17813;DHT22;9030;50.792;8.320;2024-01-27T03:55:44;0.40;99.90
17813;DHT22;9030;50.792;8.320;2024-01-27T03:58:11;0.30;99.90
17813;DHT22;9030;50.792;8.320;2024-01-27T04:00:37;0.20;99.90
17813;DHT22;9030;50.792;8.320;2024-01-27T04:03:04;0.20;99.90
17813;DHT22;9030;50.792;8.320;2024-01-27T04:05:31;0.20;99.90
17813;DHT22;9030;50.792;8.320;2024-01-27T04:07:59;0.10;99.90
17813;DHT22;9030;50.792;8.320;2024-01-27T04:10:26;0.10;99.90
17813;DHT22;9030;50.792;8.320;2024-01-27T04:12:52;0.10;99.90
17813;DHT22;9030;50.792;8.320;2024-01-27T04:15:19;0.00;99.90
17813;DHT22;9030;50.792;8.320;2024-01-27T04:17:46;-0.10;99.90
17813;DHT22;9030;50.792;8.320;2024-01-27T04:20:13;-0.10;99.90
17813;DHT22;9030;50.792;8.320;2024-01-27T04:22:39;-0.20;99.90
17813;DHT22;9030;50.792;8.320;2024-01-27T04:25:08;-0.10;99.90
17813;DHT22;9030;50.792;8.320;2024-01-27T04:27:37;-0.20;99.90
17813;DHT22;9030;50.792;8.320;2024-01-27T04:32:31;-0.30;99.90
17813;DHT22;9030;50.792;8.320;2024-01-27T04:34:58;-0.30;99.90
17813;DHT22;9030;50.792;8.320;2024-01-27T04:37:24;-0.30;99.90
17813;DHT22;9030;50.792;8.320;2024-01-27T04:39:51;-0.40;99.90
17813;DHT22;9030;50.792;8.320;2024-01-27T04:42:19;-0.40;99.90
17813;DHT22;9030;50.792;8.320;2024-01-27T04:44:46;-0.50;99.90
17813;DHT22;9030;50.792;8.320;2024-01-27T04:47:13;-0.50;99.90
17813;DHT22;9030;50.792;8.320;2024-01-27T04:49:40;-0.50;99.90
17813;DHT22;9030;50.792;8.320;2024-01-27T04:52:06;-0.50;99.90
17813;DHT22;9030;50.792;8.320;2024-01-27T04:54:33;-0.50;99.90
17813;DHT22;9030;50.792;8.320;2024-01-27T04:56:59;-0.50;99.90
17813;DHT22;9030;50.792;8.320;2024-01-27T04:59:27;-0.50;99.90
17813;DHT22;9030;50.792;8.320;2024-01-27T05:01:54;-0.50;99.90
17813;DHT22;9030;50.792;8.320;2024-01-27T05:04:21;-0.40;99.90
17813;DHT22;9030;50.792;8.320;2024-01-27T05:06:52;-0.50;99.90
17813;DHT22;9030;50.792;8.320;2024-01-27T05:09:18;-0.50;99.90
17813;DHT22;9030;50.792;8.320;2024-01-27T05:11:45;-0.50;99.90
17813;DHT22;9030;50.792;8.320;2024-01-27T05:14:13;-0.60;99.90
17813;DHT22;9030;50.792;8.320;2024-01-27T05:16:41;-0.60;99.90
17813;DHT22;9030;50.792;8.320;2024-01-27T05:19:08;-0.60;99.90
17813;DHT22;9030;50.792;8.320;2024-01-27T05:21:34;-0.70;99.90
17813;DHT22;9030;50.792;8.320;2024-01-27T05:24:01;-0.70;99.90
17813;DHT22;9030;50.792;8.320;2024-01-27T05:26:27;-0.70;99.90
17813;DHT22;9030;50.792;8.320;2024-01-27T05:28:54;-0.80;99.90
17813;DHT22;9030;50.792;8.320;2024-01-27T05:31:21;-0.90;99.90
17813;DHT22;9030;50.792;8.320;2024-01-27T05:33:49;-0.90;99.90
17813;DHT22;9030;50.792;8.320;2024-01-27T05:36:15;-1.00;99.90
17813;DHT22;9030;50.792;8.320;2024-01-27T05:38:42;-1.00;99.90
17813;DHT22;9030;50.792;8.320;2024-01-27T05:41:09;-1.00;99.90
17813;DHT22;9030;50.792;8.320;2024-01-27T05:43:35;-1.00;99.90
17813;DHT22;9030;50.792;8.320;2024-01-27T05:46:02;-1.00;99.90
17813;DHT22;9030;50.792;8.320;2024-01-27T05:48:29;-1.00;99.90
17813;DHT22;9030;50.792;8.320;2024-01-27T05:50:58;-0.80;99.90
17813;DHT22;9030;50.792;8.320;2024-01-27T05:53:26;-0.70;99.90
17813;DHT22;9030;50.792;8.320;2024-01-27T05:55:53;-0.70;99.90
17813;DHT22;9030;50.792;8.320;2024-01-27T05:58:20;-0.80;99.90
17813;DHT22;9030;50.792;8.320;2024-01-27T06:00:47;-0.90;99.90
17813;DHT22;9030;50.792;8.320;2024-01-27T06:03:13;-1.00;99.90
17813;DHT22;9030;50.792;8.320;2024-01-27T06:05:41;-1.00;99.90
17813;DHT22;9030;50.792;8.320;2024-01-27T06:08:09;-1.00;99.90
17813;DHT22;9030;50.792;8.320;2024-01-27T06:10:35;-0.90;99.90
17813;DHT22;9030;50.792;8.320;2024-01-27T06:13:03;-0.70;99.90
17813;DHT22;9030;50.792;8.320;2024-01-27T06:15:30;-0.70;99.90
17813;DHT22;9030;50.792;8.320;2024-01-27T06:17:56;-0.80;99.90
17813;DHT22;9030;50.792;8.320;2024-01-27T06:20:23;-0.80;99.90
17813;DHT22;9030;50.792;8.320;2024-01-27T06:22:50;-0.80;99.90
17813;DHT22;9030;50.792;8.320;2024-01-27T06:25:19;-0.90;99.90
17813;DHT22;9030;50.792;8.320;2024-01-27T06:27:45;-1.00;99.90
17813;DHT22;9030;50.792;8.320;2024-01-27T06:30:13;-1.10;99.90
17813;DHT22;9030;50.792;8.320;2024-01-27T06:32:40;-1.00;99.90
17813;DHT22;9030;50.792;8.320;2024-01-27T06:35:07;-1.10;99.90
17813;DHT22;9030;50.792;8.320;2024-01-27T06:37:34;-1.10;99.90
17813;DHT22;9030;50.792;8.320;2024-01-27T06:40:01;-1.20;99.90
17813;DHT22;9030;50.792;8.320;2024-01-27T06:42:29;-1.20;99.90
17813;DHT22;9030;50.792;8.320;2024-01-27T06:44:56;-1.20;99.90
17813;DHT22;9030;50.792;8.320;2024-01-27T06:47:23;-1.00;99.90
17813;DHT22;9030;50.792;8.320;2024-01-27T06:49:49;-1.10;99.90
17813;DHT22;9030;50.792;8.320;2024-01-27T06:52:16;-1.20;99.90
17813;DHT22;9030;50.792;8.320;2024-01-27T06:54:43;-1.20;99.90
17813;DHT22;9030;50.792;8.320;2024-01-27T06:57:17;-1.20;99.90
17813;DHT22;9030;50.792;8.320;2024-01-27T06:59:46;-1.20;99.90
17813;DHT22;9030;50.792;8.320;2024-01-27T07:02:13;-1.30;99.90
17813;DHT22;9030;50.792;8.320;2024-01-27T07:04:40;-1.20;99.90
17813;DHT22;9030;50.792;8.320;2024-01-27T07:07:06;-1.20;99.90
17813;DHT22;9030;50.792;8.320;2024-01-27T07:09:33;-1.10;99.90
17813;DHT22;9030;50.792;8.320;2024-01-27T07:12:00;-1.10;99.90
17813;DHT22;9030;50.792;8.320;2024-01-27T07:14:26;-1.30;99.90
17813;DHT22;9030;50.792;8.320;2024-01-27T07:16:54;-1.30;99.90
17813;DHT22;9030;50.792;8.320;2024-01-27T07:19:21;-1.20;99.90
17813;DHT22;9030;50.792;8.320;2024-01-27T07:21:47;-1.20;99.90
17813;DHT22;9030;50.792;8.320;2024-01-27T07:24:14;-1.10;99.90
17813;DHT22;9030;50.792;8.320;2024-01-27T07:26:41;-1.10;99.90
17813;DHT22;9030;50.792;8.320;2024-01-27T07:29:07;-1.20;99.90
17813;DHT22;9030;50.792;8.320;2024-01-27T07:31:34;-1.10;99.90
17813;DHT22;9030;50.792;8.320;2024-01-27T07:34:02;-1.10;99.90
17813;DHT22;9030;50.792;8.320;2024-01-27T07:36:31;-1.10;99.90
17813;DHT22;9030;50.792;8.320;2024-01-27T07:38:58;-1.00;99.90
17813;DHT22;9030;50.792;8.320;2024-01-27T07:41:25;-0.90;99.90
17813;DHT22;9030;50.792;8.320;2024-01-27T07:43:53;-1.00;99.90
17813;DHT22;9030;50.792;8.320;2024-01-27T07:46:20;-1.10;99.90
17813;DHT22;9030;50.792;8.320;2024-01-27T07:48:48;-1.10;99.90
17813;DHT22;9030;50.792;8.320;2024-01-27T07:51:16;-1.10;99.90
17813;DHT22;9030;50.792;8.320;2024-01-27T07:53:43;-1.10;99.90
17813;DHT22;9030;50.792;8.320;2024-01-27T07:56:09;-1.10;99.90
17813;DHT22;9030;50.792;8.320;2024-01-27T07:58:36;-1.00;99.90
17813;DHT22;9030;50.792;8.320;2024-01-27T08:01:03;-1.10;99.90
17813;DHT22;9030;50.792;8.320;2024-01-27T08:03:30;-1.00;99.90
17813;DHT22;9030;50.792;8.320;2024-01-27T08:05:56;-1.00;99.90
17813;DHT22;9030;50.792;8.320;2024-01-27T08:08:25;-1.00;99.90
17813;DHT22;9030;50.792;8.320;2024-01-27T08:10:51;-1.00;99.90
17813;DHT22;9030;50.792;8.320;2024-01-27T08:13:18;-0.90;99.90
17813;DHT22;9030;50.792;8.320;2024-01-27T08:15:44;-0.80;99.90
17813;DHT22;9030;50.792;8.320;2024-01-27T08:18:11;-0.60;99.90
17813;DHT22;9030;50.792;8.320;2024-01-27T08:20:38;-0.40;99.90
17813;DHT22;9030;50.792;8.320;2024-01-27T08:23:04;-0.20;99.90
17813;DHT22;9030;50.792;8.320;2024-01-27T08:25:32;-0.10;99.90
17813;DHT22;9030;50.792;8.320;2024-01-27T08:27:59;0.00;99.90
17813;DHT22;9030;50.792;8.320;2024-01-27T08:30:25;0.10;99.90
17813;DHT22;9030;50.792;8.320;2024-01-27T08:32:52;0.30;99.90
17813;DHT22;9030;50.792;8.320;2024-01-27T08:35:19;0.40;99.90
17813;DHT22;9030;50.792;8.320;2024-01-27T08:37:45;0.40;99.90
17813;DHT22;9030;50.792;8.320;2024-01-27T08:40:12;0.50;99.90
17813;DHT22;9030;50.792;8.320;2024-01-27T08:42:40;0.70;99.90
17813;DHT22;9030;50.792;8.320;2024-01-27T08:45:07;0.80;99.90
17813;DHT22;9030;50.792;8.320;2024-01-27T08:47:35;1.00;99.90
17813;DHT22;9030;50.792;8.320;2024-01-27T08:50:02;1.10;99.90
17813;DHT22;9030;50.792;8.320;2024-01-27T08:52:30;1.30;99.90
17813;DHT22;9030;50.792;8.320;2024-01-27T08:54:56;1.20;99.90
17813;DHT22;9030;50.792;8.320;2024-01-27T08:57:23;1.40;99.90
17813;DHT22;9030;50.792;8.320;2024-01-27T08:59:51;1.60;99.90
17813;DHT22;9030;50.792;8.320;2024-01-27T09:02:18;1.80;99.90
17813;DHT22;9030;50.792;8.320;2024-01-27T09:04:44;2.10;99.90
17813;DHT22;9030;50.792;8.320;2024-01-27T09:07:11;2.20;99.90
17813;DHT22;9030;50.792;8.320;2024-01-27T09:09:38;2.30;99.90
17813;DHT22;9030;50.792;8.320;2024-01-27T09:12:04;2.40;99.90
17813;DHT22;9030;50.792;8.320;2024-01-27T09:14:31;2.60;99.90
17813;DHT22;9030;50.792;8.320;2024-01-27T09:17:00;2.60;99.90
17813;DHT22;9030;50.792;8.320;2024-01-27T09:19:27;2.60;99.90
17813;DHT22;9030;50.792;8.320;2024-01-27T09:21:54;2.70;99.90
17813;DHT22;9030;50.792;8.320;2024-01-27T09:24:21;3.00;99.90
17813;DHT22;9030;50.792;8.320;2024-01-27T09:26:47;3.10;99.90
17813;DHT22;9030;50.792;8.320;2024-01-27T09:29:14;3.20;99.90
17813;DHT22;9030;50.792;8.320;2024-01-27T09:31:40;3.30;99.90
17813;DHT22;9030;50.792;8.320;2024-01-27T09:34:08;3.50;99.90
17813;DHT22;9030;50.792;8.320;2024-01-27T09:36:35;3.60;99.90
17813;DHT22;9030;50.792;8.320;2024-01-27T09:39:02;3.50;99.90
17813;DHT22;9030;50.792;8.320;2024-01-27T09:41:30;3.50;99.90
17813;DHT22;9030;50.792;8.320;2024-01-27T09:44:00;3.60;99.90
17813;DHT22;9030;50.792;8.320;2024-01-27T09:46:28;3.60;99.90
17813;DHT22;9030;50.792;8.320;2024-01-27T09:48:55;3.70;99.90
17813;DHT22;9030;50.792;8.320;2024-01-27T09:51:25;3.90;99.90
17813;DHT22;9030;50.792;8.320;2024-01-27T09:53:52;4.00;99.90
17813;DHT22;9030;50.792;8.320;2024-01-27T09:56:19;4.20;99.90
17813;DHT22;9030;50.792;8.320;2024-01-27T09:58:47;4.30;99.90
17813;DHT22;9030;50.792;8.320;2024-01-27T10:01:16;4.30;99.90
17813;DHT22;9030;50.792;8.320;2024-01-27T10:03:43;4.40;99.90
17813;DHT22;9030;50.792;8.320;2024-01-27T10:06:10;4.40;99.90
17813;DHT22;9030;50.792;8.320;2024-01-27T10:08:38;4.40;99.90
17813;DHT22;9030;50.792;8.320;2024-01-27T10:11:07;4.40;99.90
17813;DHT22;9030;50.792;8.320;2024-01-27T10:13:35;4.60;99.90
17813;DHT22;9030;50.792;8.320;2024-01-27T10:16:02;4.60;99.90
17813;DHT22;9030;50.792;8.320;2024-01-27T10:18:28;4.70;99.90
17813;DHT22;9030;50.792;8.320;2024-01-27T10:20:55;5.10;99.90
17813;DHT22;9030;50.792;8.320;2024-01-27T10:23:21;5.30;99.90
17813;DHT22;9030;50.792;8.320;2024-01-27T10:25:50;5.50;99.90
17813;DHT22;9030;50.792;8.320;2024-01-27T10:28:17;5.70;99.90
17813;DHT22;9030;50.792;8.320;2024-01-27T10:30:44;5.80;99.90
17813;DHT22;9030;50.792;8.320;2024-01-27T10:33:14;5.90;99.90
17813;DHT22;9030;50.792;8.320;2024-01-27T10:35:40;6.20;99.90
17813;DHT22;9030;50.792;8.320;2024-01-27T10:38:07;6.30;99.90
17813;DHT22;9030;50.792;8.320;2024-01-27T10:40:35;6.40;99.90
17813;DHT22;9030;50.792;8.320;2024-01-27T10:43:05;6.40;99.90
17813;DHT22;9030;50.792;8.320;2024-01-27T10:45:35;6.70;99.90
17813;DHT22;9030;50.792;8.320;2024-01-27T10:48:03;6.70;99.90
17813;DHT22;9030;50.792;8.320;2024-01-27T10:50:30;6.80;99.90
17813;DHT22;9030;50.792;8.320;2024-01-27T10:52:58;6.70;99.90
17813;DHT22;9030;50.792;8.320;2024-01-27T10:55:26;6.90;99.90
17813;DHT22;9030;50.792;8.320;2024-01-27T10:57:54;6.90;99.90
17813;DHT22;9030;50.792;8.320;2024-01-27T11:00:24;7.00;99.90
17813;DHT22;9030;50.792;8.320;2024-01-27T11:02:52;7.10;99.90
17813;DHT22;9030;50.792;8.320;2024-01-27T11:05:21;7.40;99.90
17813;DHT22;9030;50.792;8.320;2024-01-27T11:07:51;7.10;99.90
17813;DHT22;9030;50.792;8.320;2024-01-27T11:10:18;7.10;99.90
17813;DHT22;9030;50.792;8.320;2024-01-27T11:12:46;7.10;99.90
17813;DHT22;9030;50.792;8.320;2024-01-27T11:15:13;7.30;99.90
17813;DHT22;9030;50.792;8.320;2024-01-27T11:17:42;7.70;99.90
17813;DHT22;9030;50.792;8.320;2024-01-27T11:20:11;7.60;99.90
17813;DHT22;9030;50.792;8.320;2024-01-27T11:22:38;7.50;99.90
17813;DHT22;9030;50.792;8.320;2024-01-27T11:25:07;7.20;99.90
17813;DHT22;9030;50.792;8.320;2024-01-27T11:27:34;7.40;99.90
17813;DHT22;9030;50.792;8.320;2024-01-27T11:30:01;7.60;99.90
17813;DHT22;9030;50.792;8.320;2024-01-27T11:32:27;7.70;99.90
17813;DHT22;9030;50.792;8.320;2024-01-27T11:34:56;8.00;99.90
17813;DHT22;9030;50.792;8.320;2024-01-27T11:37:23;7.80;99.90
17813;DHT22;9030;50.792;8.320;2024-01-27T11:39:50;7.70;99.90
17813;DHT22;9030;50.792;8.320;2024-01-27T11:42:17;7.80;99.90
17813;DHT22;9030;50.792;8.320;2024-01-27T11:44:44;7.80;99.90
17813;DHT22;9030;50.792;8.320;2024-01-27T11:47:15;7.80;99.90
17813;DHT22;9030;50.792;8.320;2024-01-27T11:49:42;8.00;99.90
17813;DHT22;9030;50.792;8.320;2024-01-27T11:52:09;7.90;99.90
17813;DHT22;9030;50.792;8.320;2024-01-27T11:54:36;7.80;99.90
17813;DHT22;9030;50.792;8.320;2024-01-27T11:57:04;7.70;99.90
17813;DHT22;9030;50.792;8.320;2024-01-27T11:59:30;7.80;99.90
17813;DHT22;9030;50.792;8.320;2024-01-27T12:01:56;7.80;99.90
17813;DHT22;9030;50.792;8.320;2024-01-27T12:04:24;7.90;99.90
17813;DHT22;9030;50.792;8.320;2024-01-27T12:06:50;8.00;99.90
17813;DHT22;9030;50.792;8.320;2024-01-27T12:09:18;8.10;99.90
17813;DHT22;9030;50.792;8.320;2024-01-27T12:11:45;7.90;99.90
17813;DHT22;9030;50.792;8.320;2024-01-27T12:14:12;7.80;99.90
17813;DHT22;9030;50.792;8.320;2024-01-27T12:16:38;7.90;99.90
17813;DHT22;9030;50.792;8.320;2024-01-27T12:19:05;8.00;99.90
17813;DHT22;9030;50.792;8.320;2024-01-27T12:21:32;8.00;99.90
17813;DHT22;9030;50.792;8.320;2024-01-27T12:23:58;7.80;99.90
17813;DHT22;9030;50.792;8.320;2024-01-27T12:26:29;7.80;99.90
17813;DHT22;9030;50.792;8.320;2024-01-27T12:28:56;7.60;99.90
17813;DHT22;9030;50.792;8.320;2024-01-27T12:31:23;7.80;99.90
17813;DHT22;9030;50.792;8.320;2024-01-27T12:33:51;7.60;99.90
17813;DHT22;9030;50.792;8.320;2024-01-27T12:36:18;7.70;99.90
17813;DHT22;9030;50.792;8.320;2024-01-27T12:38:56;7.80;99.90
17813;DHT22;9030;50.792;8.320;2024-01-27T12:41:24;7.70;99.90
17813;DHT22;9030;50.792;8.320;2024-01-27T12:43:52;7.80;99.90
17813;DHT22;9030;50.792;8.320;2024-01-27T12:46:19;7.70;99.90
17813;DHT22;9030;50.792;8.320;2024-01-27T12:48:46;7.40;99.90
17813;DHT22;9030;50.792;8.320;2024-01-27T12:51:12;7.40;99.90
17813;DHT22;9030;50.792;8.320;2024-01-27T12:53:41;7.50;99.90
17813;DHT22;9030;50.792;8.320;2024-01-27T12:56:09;7.40;99.90
17813;DHT22;9030;50.792;8.320;2024-01-27T12:58:36;7.50;99.90
17813;DHT22;9030;50.792;8.320;2024-01-27T13:01:05;7.40;99.90
17813;DHT22;9030;50.792;8.320;2024-01-27T13:03:32;7.30;99.90
17813;DHT22;9030;50.792;8.320;2024-01-27T13:05:58;7.50;99.90
17813;DHT22;9030;50.792;8.320;2024-01-27T13:08:25;7.40;99.90
17813;DHT22;9030;50.792;8.320;2024-01-27T13:10:52;7.50;99.90
17813;DHT22;9030;50.792;8.320;2024-01-27T13:13:19;7.40;99.90
17813;DHT22;9030;50.792;8.320;2024-01-27T13:15:45;7.20;99.90
17813;DHT22;9030;50.792;8.320;2024-01-27T13:18:13;7.20;99.90
17813;DHT22;9030;50.792;8.320;2024-01-27T13:20:40;7.20;99.90
17813;DHT22;9030;50.792;8.320;2024-01-27T13:23:07;7.20;99.90
17813;DHT22;9030;50.792;8.320;2024-01-27T13:25:34;7.10;99.90
17813;DHT22;9030;50.792;8.320;2024-01-27T13:28:00;7.00;99.90
17813;DHT22;9030;50.792;8.320;2024-01-27T13:30:27;7.10;99.90
17813;DHT22;9030;50.792;8.320;2024-01-27T13:32:54;7.00;99.90
17813;DHT22;9030;50.792;8.320;2024-01-27T13:35:22;6.90;99.90
17813;DHT22;9030;50.792;8.320;2024-01-27T13:37:48;6.90;99.90
17813;DHT22;9030;50.792;8.320;2024-01-27T13:40:16;6.90;99.90
17813;DHT22;9030;50.792;8.320;2024-01-27T13:42:42;6.80;99.90
17813;DHT22;9030;50.792;8.320;2024-01-27T13:45:09;6.80;99.90
17813;DHT22;9030;50.792;8.320;2024-01-27T13:47:36;6.70;99.90
17813;DHT22;9030;50.792;8.320;2024-01-27T13:50:04;6.70;99.90
17813;DHT22;9030;50.792;8.320;2024-01-27T13:52:33;6.70;99.90
17813;DHT22;9030;50.792;8.320;2024-01-27T13:54:59;6.60;99.90
17813;DHT22;9030;50.792;8.320;2024-01-27T13:57:26;6.50;99.90
17813;DHT22;9030;50.792;8.320;2024-01-27T13:59:53;6.50;99.90
17813;DHT22;9030;50.792;8.320;2024-01-27T14:02:20;6.50;99.90
17813;DHT22;9030;50.792;8.320;2024-01-27T14:04:47;6.50;99.90
17813;DHT22;9030;50.792;8.320;2024-01-27T14:07:14;6.50;99.90
17813;DHT22;9030;50.792;8.320;2024-01-27T14:09:43;6.40;99.90
17813;DHT22;9030;50.792;8.320;2024-01-27T14:12:10;6.40;99.90
17813;DHT22;9030;50.792;8.320;2024-01-27T14:14:36;6.40;99.90
17813;DHT22;9030;50.792;8.320;2024-01-27T14:17:05;6.40;99.90
17813;DHT22;9030;50.792;8.320;2024-01-27T14:19:32;6.30;99.90
17813;DHT22;9030;50.792;8.320;2024-01-27T14:21:59;6.20;99.90
17813;DHT22;9030;50.792;8.320;2024-01-27T14:24:25;6.20;99.90
17813;DHT22;9030;50.792;8.320;2024-01-27T14:26:53;6.30;99.90
17813;DHT22;9030;50.792;8.320;2024-01-27T14:29:20;6.20;99.90
17813;DHT22;9030;50.792;8.320;2024-01-27T14:31:47;6.20;99.90
17813;DHT22;9030;50.792;8.320;2024-01-27T14:34:13;6.20;99.90
17813;DHT22;9030;50.792;8.320;2024-01-27T14:36:40;6.30;99.90
17813;DHT22;9030;50.792;8.320;2024-01-27T14:39:06;6.20;99.90
17813;DHT22;9030;50.792;8.320;2024-01-27T14:41:36;6.20;99.90
17813;DHT22;9030;50.792;8.320;2024-01-27T14:44:04;6.10;99.90
17813;DHT22;9030;50.792;8.320;2024-01-27T14:46:31;6.10;99.90
17813;DHT22;9030;50.792;8.320;2024-01-27T14:48:57;6.00;99.90
17813;DHT22;9030;50.792;8.320;2024-01-27T14:51:24;5.90;99.90
17813;DHT22;9030;50.792;8.320;2024-01-27T14:53:50;5.80;99.90
17813;DHT22;9030;50.792;8.320;2024-01-27T14:56:17;5.80;99.90
17813;DHT22;9030;50.792;8.320;2024-01-27T14:58:44;5.70;99.90
17813;DHT22;9030;50.792;8.320;2024-01-27T15:01:13;5.70;99.90
17813;DHT22;9030;50.792;8.320;2024-01-27T15:03:41;5.70;99.90
17813;DHT22;9030;50.792;8.320;2024-01-27T15:06:07;5.60;99.90
17813;DHT22;9030;50.792;8.320;2024-01-27T15:08:34;5.40;99.90
17813;DHT22;9030;50.792;8.320;2024-01-27T15:11:01;5.20;99.90
17813;DHT22;9030;50.792;8.320;2024-01-27T15:13:29;5.10;99.90
17813;DHT22;9030;50.792;8.320;2024-01-27T15:15:56;5.00;99.90
17813;DHT22;9030;50.792;8.320;2024-01-27T15:18:24;4.90;99.90
17813;DHT22;9030;50.792;8.320;2024-01-27T15:20:50;4.60;99.90
17813;DHT22;9030;50.792;8.320;2024-01-27T15:23:17;4.50;99.90
17813;DHT22;9030;50.792;8.320;2024-01-27T15:25:47;4.40;99.90
17813;DHT22;9030;50.792;8.320;2024-01-27T15:28:14;4.20;99.90
17813;DHT22;9030;50.792;8.320;2024-01-27T15:30:40;4.20;99.90
17813;DHT22;9030;50.792;8.320;2024-01-27T15:33:08;4.20;99.90
17813;DHT22;9030;50.792;8.320;2024-01-27T15:35:36;4.00;99.90
17813;DHT22;9030;50.792;8.320;2024-01-27T15:38:03;3.90;99.90
17813;DHT22;9030;50.792;8.320;2024-01-27T15:40:30;3.80;99.90
17813;DHT22;9030;50.792;8.320;2024-01-27T15:42:56;3.60;99.90
17813;DHT22;9030;50.792;8.320;2024-01-27T15:45:23;3.50;99.90
17813;DHT22;9030;50.792;8.320;2024-01-27T15:47:50;3.60;99.90
17813;DHT22;9030;50.792;8.320;2024-01-27T15:50:18;3.60;99.90
17813;DHT22;9030;50.792;8.320;2024-01-27T15:52:48;3.40;99.90
17813;DHT22;9030;50.792;8.320;2024-01-27T15:55:14;3.40;99.90
17813;DHT22;9030;50.792;8.320;2024-01-27T15:57:41;3.30;99.90